createdAt,value
2018-04-18T00:00:51.947Z,15.94
2018-04-18T00:03:19.631Z,15.63
2018-04-18T00:05:47.309Z,15.43
2018-04-18T00:08:14.997Z,15.26
2018-04-18T00:10:42.683Z,15.25
2018-04-18T00:13:10.349Z,15.08
2018-04-18T00:15:37.980Z,15.06
2018-04-18T00:18:05.605Z,15.03
2018-04-18T00:20:33.405Z,15.09
2018-04-18T00:23:01.004Z,15.10
2018-04-18T00:25:28.690Z,15.09
2018-04-18T00:27:56.307Z,15.10
2018-04-18T00:30:23.938Z,15.13
2018-04-18T00:32:51.621Z,15.18
2018-04-18T00:35:19.364Z,15.15
2018-04-18T00:37:47.009Z,15.12
2018-04-18T00:40:14.661Z,15.15
2018-04-18T00:42:42.296Z,15.11
2018-04-18T00:45:10.012Z,15.10
2018-04-18T00:47:37.840Z,15.05
2018-04-18T00:50:05.561Z,15.10
2018-04-18T00:52:33.206Z,15.21
2018-04-18T00:55:00.894Z,15.19
2018-04-18T00:57:28.621Z,15.12
2018-04-18T00:59:58.804Z,15.04
2018-04-18T01:02:26.522Z,14.99
2018-04-18T01:04:54.212Z,15.08
2018-04-18T01:07:21.849Z,15.24
2018-04-18T01:09:49.541Z,15.44
2018-04-18T01:12:17.444Z,15.61
2018-04-18T01:14:45.134Z,15.71
2018-04-18T01:17:12.841Z,15.60
2018-04-18T01:19:40.460Z,15.47
2018-04-18T01:22:08.201Z,15.53
2018-04-18T01:24:35.977Z,15.52
2018-04-18T01:27:03.639Z,15.31
2018-04-18T01:29:31.297Z,15.05
2018-04-18T01:31:58.976Z,14.86
2018-04-18T01:34:26.637Z,14.60
2018-04-18T01:36:54.419Z,14.42
2018-04-18T01:39:22.057Z,14.22
2018-04-18T01:41:49.861Z,14.18
2018-04-18T01:44:17.492Z,14.29
2018-04-18T01:46:45.139Z,14.48
2018-04-18T01:49:21.489Z,14.70
2018-04-18T01:51:49.127Z,14.91
2018-04-18T01:54:16.724Z,15.04
2018-04-18T01:56:44.371Z,14.85
2018-04-18T01:59:12.056Z,14.65
2018-04-18T02:01:39.742Z,14.69
2018-04-18T02:04:07.344Z,14.81
2018-04-18T02:06:35.069Z,14.83
2018-04-18T02:09:02.701Z,14.87
2018-04-18T02:11:30.433Z,14.87
2018-04-18T02:13:58.129Z,14.98
2018-04-18T02:16:25.772Z,15.06
2018-04-18T02:18:53.553Z,15.11
2018-04-18T02:21:21.235Z,15.06
2018-04-18T02:23:48.887Z,15.08
2018-04-18T02:26:16.490Z,15.15
2018-04-18T02:28:44.121Z,15.22
2018-04-18T02:31:12.252Z,15.19
2018-04-18T02:33:39.905Z,15.13
2018-04-18T02:36:07.520Z,15.11
2018-04-18T02:38:35.159Z,15.03
2018-04-18T02:41:02.850Z,14.98
2018-04-18T02:43:30.594Z,14.80
2018-04-18T02:45:58.215Z,14.58
2018-04-18T02:48:25.864Z,14.16
2018-04-18T02:50:53.473Z,13.89
2018-04-18T02:53:21.158Z,13.79
2018-04-18T02:55:48.829Z,14.02
2018-04-18T02:58:16.538Z,14.20
2018-04-18T03:00:44.160Z,14.37
2018-04-18T03:03:11.760Z,14.49
2018-04-18T03:05:39.445Z,14.34
2018-04-18T03:08:07.080Z,13.97
2018-04-18T03:10:34.872Z,13.91
2018-04-18T03:13:02.473Z,13.95
2018-04-18T03:15:30.152Z,14.09
2018-04-18T03:17:57.811Z,14.16
2018-04-18T03:20:25.529Z,14.17
2018-04-18T03:22:53.292Z,14.16
2018-04-18T03:25:21.046Z,14.13
2018-04-18T03:27:48.636Z,14.12
2018-04-18T03:30:16.304Z,14.05
2018-04-18T03:32:43.950Z,14.01
2018-04-18T03:35:11.633Z,14.01
2018-04-18T03:37:39.341Z,14.08
2018-04-18T03:40:06.954Z,14.03
2018-04-18T03:42:34.748Z,13.70
2018-04-18T03:45:02.526Z,13.62
2018-04-18T03:47:30.340Z,13.57
2018-04-18T03:49:57.990Z,13.68
2018-04-18T03:52:25.776Z,13.72
2018-04-18T03:54:53.497Z,13.55
2018-04-18T03:57:21.170Z,13.40
2018-04-18T03:59:49.431Z,13.53
2018-04-18T04:02:17.097Z,13.65
2018-04-18T04:04:44.775Z,13.63
2018-04-18T04:07:12.533Z,13.55
2018-04-18T04:09:40.189Z,13.66
2018-04-18T04:12:07.867Z,13.76
2018-04-18T04:14:35.479Z,13.81
2018-04-18T04:17:15.040Z,13.79
2018-04-18T04:19:54.437Z,13.75
2018-04-18T04:22:33.697Z,13.77
2018-04-18T04:25:01.338Z,13.73
2018-04-18T04:27:29.032Z,13.57
2018-04-18T04:29:56.727Z,13.56
2018-04-18T04:32:24.491Z,13.60
2018-04-18T04:34:52.140Z,13.52
2018-04-18T04:37:19.865Z,13.60
2018-04-18T04:39:47.636Z,13.60
2018-04-18T04:42:15.285Z,13.66
2018-04-18T04:44:43.018Z,13.66
2018-04-18T04:47:10.864Z,13.66
2018-04-18T04:49:38.703Z,13.65
2018-04-18T04:52:06.353Z,13.60
2018-04-18T04:54:34.076Z,13.64
2018-04-18T04:57:01.717Z,13.64
2018-04-18T04:59:29.580Z,13.64
2018-04-18T05:01:57.446Z,13.65
2018-04-18T05:04:25.086Z,13.66
2018-04-18T05:06:52.820Z,13.68
2018-04-18T05:09:20.482Z,13.68
2018-04-18T05:11:48.081Z,13.70
2018-04-18T05:14:15.801Z,13.78
2018-04-18T05:16:43.426Z,13.79
2018-04-18T05:19:11.097Z,13.84
2018-04-18T05:21:38.811Z,13.81
2018-04-18T05:24:06.501Z,13.77
2018-04-18T05:26:34.162Z,13.77
2018-04-18T05:29:01.846Z,13.76
2018-04-18T05:31:29.540Z,13.83
2018-04-18T05:33:57.222Z,13.88
2018-04-18T05:36:24.857Z,13.95
2018-04-18T05:38:52.533Z,13.99
2018-04-18T05:41:20.133Z,14.00
2018-04-18T05:43:47.792Z,13.96
2018-04-18T05:46:15.440Z,13.99
2018-04-18T05:48:43.171Z,14.02
2018-04-18T05:51:10.983Z,14.08
2018-04-18T05:53:38.708Z,14.09
2018-04-18T05:56:06.390Z,14.11
2018-04-18T05:58:34.045Z,14.18
2018-04-18T06:01:01.646Z,14.26
2018-04-18T06:03:29.312Z,14.21
2018-04-18T06:05:56.960Z,14.03
2018-04-18T06:08:24.580Z,13.93
2018-04-18T06:10:52.249Z,13.95
2018-04-18T06:13:19.851Z,14.02
2018-04-18T06:15:47.593Z,14.07
2018-04-18T06:18:15.421Z,14.12
2018-04-18T06:20:43.072Z,14.13
2018-04-18T06:23:10.876Z,14.16
2018-04-18T06:25:38.583Z,14.12
2018-04-18T06:28:06.245Z,14.13
2018-04-18T06:30:33.916Z,14.10
2018-04-18T06:33:01.686Z,14.17
2018-04-18T06:35:29.494Z,14.14
2018-04-18T06:37:57.142Z,14.17
2018-04-18T06:40:24.768Z,14.32
2018-04-18T06:42:52.450Z,14.45
2018-04-18T06:45:20.172Z,14.56
2018-04-18T06:47:47.801Z,14.63
2018-04-18T06:50:15.425Z,14.75
2018-04-18T06:52:43.166Z,14.86
2018-04-18T06:55:10.947Z,14.97
2018-04-18T06:57:38.737Z,14.96
2018-04-18T07:00:06.437Z,14.98
2018-04-18T07:02:34.124Z,15.01
2018-04-18T07:05:01.833Z,15.09
2018-04-18T07:07:29.460Z,15.20
2018-04-18T07:09:57.061Z,15.24
2018-04-18T07:12:24.725Z,15.31
2018-04-18T07:14:52.380Z,15.41
2018-04-18T07:17:20.156Z,15.48
2018-04-18T07:19:47.786Z,15.56
2018-04-18T07:22:15.508Z,15.67
2018-04-18T07:24:43.117Z,15.78
2018-04-18T07:27:10.818Z,15.80
2018-04-18T07:29:38.441Z,15.91
2018-04-18T07:32:06.201Z,15.95
2018-04-18T07:34:34.004Z,16.04
2018-04-18T07:37:01.671Z,16.12
2018-04-18T07:39:29.499Z,16.19
2018-04-18T07:41:57.159Z,16.22
2018-04-18T07:44:24.791Z,16.26
2018-04-18T07:46:52.488Z,16.27
2018-04-18T07:49:20.167Z,16.37
2018-04-18T07:51:47.779Z,16.42
2018-04-18T07:54:15.705Z,16.54
2018-04-18T07:56:43.328Z,16.66
2018-04-18T07:59:11.165Z,16.74
2018-04-18T08:01:38.906Z,16.83
2018-04-18T08:04:06.570Z,16.89
2018-04-18T08:06:34.177Z,16.96
2018-04-18T08:09:01.832Z,16.99
2018-04-18T08:11:29.586Z,17.08
2018-04-18T08:13:57.409Z,17.19
2018-04-18T08:16:25.041Z,17.25
2018-04-18T08:18:54.569Z,17.36
2018-04-18T08:21:22.168Z,17.44
2018-04-18T08:23:49.824Z,17.58
2018-04-18T08:26:17.456Z,17.66
2018-04-18T08:28:45.156Z,17.70
2018-04-18T08:31:13.571Z,17.82
2018-04-18T08:33:41.186Z,17.95
2018-04-18T08:36:08.861Z,17.99
2018-04-18T08:38:36.477Z,18.03
2018-04-18T08:41:04.116Z,18.12
2018-04-18T08:43:31.835Z,18.20
2018-04-18T08:45:59.469Z,18.28
2018-04-18T08:48:27.102Z,18.43
2018-04-18T08:50:54.766Z,18.49
2018-04-18T08:53:22.361Z,18.57
2018-04-18T08:55:50.024Z,18.67
2018-04-18T08:58:17.701Z,18.76
2018-04-18T09:00:45.347Z,18.79
2018-04-18T09:03:12.965Z,18.93
2018-04-18T09:05:40.688Z,19.00
2018-04-18T09:08:08.327Z,19.06
2018-04-18T09:10:36.064Z,19.15
2018-04-18T09:13:03.669Z,19.24
2018-04-18T09:15:31.333Z,19.39
2018-04-18T09:17:58.968Z,19.54
2018-04-18T09:20:26.572Z,19.57
2018-04-18T09:22:54.240Z,19.67
2018-04-18T09:25:21.842Z,19.80
2018-04-18T09:27:49.517Z,19.98
2018-04-18T09:30:17.178Z,20.19
2018-04-18T09:32:44.820Z,20.26
2018-04-18T09:35:12.417Z,20.41
2018-04-18T09:37:40.071Z,20.51
2018-04-18T09:40:07.671Z,20.59
2018-04-18T09:42:35.637Z,20.65
2018-04-18T09:45:03.259Z,20.72
2018-04-18T09:47:30.912Z,20.86
2018-04-18T09:49:58.519Z,20.97
2018-04-18T09:52:26.271Z,21.04
2018-04-18T09:54:53.918Z,21.16
2018-04-18T09:57:21.509Z,21.29
2018-04-18T09:59:49.141Z,21.37
2018-04-18T10:05:19.323Z,21.70
2018-04-18T10:07:46.949Z,21.89
2018-04-18T10:10:14.606Z,21.96
2018-04-18T10:12:42.339Z,22.13
2018-04-18T10:15:09.978Z,22.23
2018-04-18T10:17:37.600Z,22.37
2018-04-18T10:20:05.249Z,22.43
2018-04-18T10:22:32.857Z,22.52
2018-04-18T10:25:00.555Z,22.75
2018-04-18T10:27:28.231Z,23.03
2018-04-18T10:29:55.881Z,23.10
2018-04-18T10:32:23.490Z,23.28
2018-04-18T10:34:51.146Z,23.32
2018-04-18T10:37:18.777Z,23.36
2018-04-18T10:39:46.405Z,23.52
2018-04-18T10:42:14.017Z,23.63
2018-04-18T10:44:41.674Z,23.72
2018-04-18T10:47:09.290Z,23.87
2018-04-18T10:49:36.926Z,24.14
2018-04-18T10:52:04.615Z,24.28
2018-04-18T10:54:32.292Z,24.35
2018-04-18T10:56:59.906Z,24.39
2018-04-18T10:59:27.748Z,24.50
2018-04-18T11:01:55.353Z,24.64
2018-04-18T11:04:22.993Z,24.77
2018-04-18T11:06:50.815Z,24.72
2018-04-18T11:09:18.459Z,24.93
2018-04-18T11:11:46.269Z,25.21
2018-04-18T11:14:13.904Z,25.40
2018-04-18T11:16:41.513Z,25.56
2018-04-18T11:19:09.106Z,25.71
2018-04-18T11:21:36.769Z,25.58
2018-04-18T11:24:04.411Z,25.60
2018-04-18T11:26:32.045Z,25.59
2018-04-18T11:28:59.753Z,25.61
2018-04-18T11:31:27.405Z,25.80
2018-04-18T11:33:55.074Z,25.91
2018-04-18T11:36:22.800Z,26.02
2018-04-18T11:38:50.430Z,26.36
2018-04-18T11:41:18.084Z,26.55
2018-04-18T11:43:45.689Z,26.51
2018-04-18T11:46:13.353Z,26.49
2018-04-18T11:48:40.940Z,26.37
2018-04-18T11:51:08.613Z,26.46
2018-04-18T11:53:36.183Z,26.59
2018-04-18T11:56:03.805Z,26.70
2018-04-18T11:58:31.579Z,26.95
2018-04-18T12:00:59.201Z,26.81
2018-04-18T12:03:26.782Z,26.77
2018-04-18T12:05:54.594Z,26.80
2018-04-18T12:08:22.202Z,26.90
2018-04-18T12:10:49.806Z,27.05
2018-04-18T12:13:17.447Z,27.23
2018-04-18T12:15:45.041Z,27.16
2018-04-18T12:18:12.727Z,27.47
2018-04-18T12:20:40.329Z,27.74
2018-04-18T12:23:07.969Z,27.73
2018-04-18T12:25:35.599Z,27.48
2018-04-18T12:28:03.379Z,27.48
2018-04-18T12:30:31.031Z,27.58
2018-04-18T12:32:58.652Z,27.68
2018-04-18T12:35:26.271Z,27.45
2018-04-18T12:37:53.925Z,27.76
2018-04-18T12:40:21.533Z,28.09
2018-04-18T12:42:49.152Z,28.02
2018-04-18T12:45:16.786Z,27.93
2018-04-18T12:47:44.448Z,27.80
2018-04-18T12:50:12.077Z,27.73
2018-04-18T12:52:39.692Z,27.90
2018-04-18T12:55:07.364Z,27.96
2018-04-18T12:57:35.054Z,28.25
2018-04-18T13:00:02.640Z,28.26
2018-04-18T13:02:30.229Z,28.59
2018-04-18T13:04:57.894Z,28.57
2018-04-18T13:07:25.487Z,28.74
2018-04-18T13:09:53.117Z,28.84
2018-04-18T13:12:20.806Z,28.63
2018-04-18T13:14:48.396Z,28.55
2018-04-18T13:17:16.013Z,28.88
2018-04-18T13:19:43.649Z,29.16
2018-04-18T13:22:11.256Z,29.27
2018-04-18T13:24:38.850Z,29.53
2018-04-18T13:27:06.476Z,29.51
2018-04-18T13:29:34.077Z,29.47
2018-04-18T13:32:01.822Z,29.58
2018-04-18T13:34:29.458Z,29.64
2018-04-18T13:36:57.104Z,29.51
2018-04-18T13:39:24.708Z,29.70
2018-04-18T13:41:52.341Z,30.07
2018-04-18T13:44:19.951Z,30.03
2018-04-18T13:46:47.589Z,29.96
2018-04-18T13:49:15.177Z,29.86
2018-04-18T13:51:42.843Z,30.23
2018-04-18T13:54:10.458Z,30.30
2018-04-18T13:56:38.115Z,30.33
2018-04-18T13:59:05.712Z,30.18
2018-04-18T14:01:33.374Z,30.49
2018-04-18T14:04:00.998Z,30.70
2018-04-18T14:06:28.624Z,30.83
2018-04-18T14:08:56.229Z,30.93
2018-04-18T14:11:24.027Z,30.58
2018-04-18T14:13:51.637Z,30.55
2018-04-18T14:16:19.299Z,30.87
2018-04-18T14:18:46.907Z,30.82
2018-04-18T14:21:14.566Z,30.90
2018-04-18T14:23:42.368Z,30.75
2018-04-18T14:26:10.041Z,30.95
2018-04-18T14:28:37.642Z,31.03
2018-04-18T14:31:05.296Z,30.70
2018-04-18T14:33:32.950Z,30.74
2018-04-18T14:36:00.563Z,30.86
2018-04-18T14:38:28.207Z,30.91
2018-04-18T14:40:55.826Z,30.85
2018-04-18T14:43:23.489Z,31.02
2018-04-18T14:45:51.130Z,31.24
2018-04-18T14:48:18.758Z,31.12
2018-04-18T14:50:46.356Z,31.13
2018-04-18T14:53:14.068Z,31.30
2018-04-18T14:55:41.697Z,31.20
2018-04-18T14:58:09.327Z,31.50
2018-04-18T15:00:37.010Z,31.45
2018-04-18T15:03:04.633Z,31.10
2018-04-18T15:05:32.269Z,30.89
2018-04-18T15:08:00.072Z,30.79
2018-04-18T15:10:27.684Z,30.65
2018-04-18T15:12:55.305Z,31.06
2018-04-18T15:15:22.973Z,31.60
2018-04-18T15:17:50.580Z,32.04
2018-04-18T15:20:18.256Z,32.50
2018-04-18T15:22:45.909Z,32.51
2018-04-18T15:25:13.554Z,32.11
2018-04-18T15:27:41.152Z,32.13
2018-04-18T15:30:08.795Z,32.06
2018-04-18T15:32:36.388Z,31.67
2018-04-18T15:35:04.079Z,31.53
2018-04-18T15:37:31.718Z,31.43
2018-04-18T15:39:59.401Z,31.21
2018-04-18T15:42:27.425Z,31.22
2018-04-18T15:44:55.104Z,31.63
2018-04-18T15:47:22.956Z,31.78
2018-04-18T15:49:50.605Z,32.14
2018-04-18T15:52:18.242Z,32.42
2018-04-18T15:54:46.063Z,32.13
2018-04-18T15:57:13.690Z,31.42
2018-04-18T15:59:41.309Z,31.41
2018-04-18T16:02:09.050Z,31.31
2018-04-18T16:04:36.713Z,31.45
2018-04-18T16:07:04.298Z,31.62
2018-04-18T16:09:31.889Z,31.73
2018-04-18T16:11:59.521Z,31.82
2018-04-18T16:14:27.139Z,32.25
2018-04-18T16:16:54.797Z,32.03
2018-04-18T16:19:22.411Z,31.57
2018-04-18T16:21:50.049Z,31.42
2018-04-18T16:24:17.749Z,31.36
2018-04-18T16:26:45.459Z,31.18
2018-04-18T16:29:24.743Z,31.13
2018-04-18T16:31:52.387Z,30.85
2018-04-18T16:34:19.978Z,30.91
2018-04-18T16:36:47.639Z,30.76
2018-04-18T16:39:15.245Z,30.84
2018-04-18T16:41:42.886Z,30.76
2018-04-18T16:44:10.517Z,30.81
2018-04-18T16:46:38.183Z,31.14
2018-04-18T16:49:06.204Z,31.20
2018-04-18T16:51:33.861Z,30.94
2018-04-18T16:54:01.493Z,30.82
2018-04-18T16:56:29.085Z,30.69
2018-04-18T16:58:56.754Z,30.81
2018-04-18T17:01:24.361Z,30.74
2018-04-18T17:03:52.106Z,30.65
2018-04-18T17:06:19.724Z,30.78
2018-04-18T17:08:47.369Z,30.73
2018-04-18T17:11:14.964Z,30.52
2018-04-18T17:13:42.664Z,30.29
2018-04-18T17:16:10.373Z,30.25
2018-04-18T17:18:38.021Z,30.01
2018-04-18T17:21:05.624Z,30.19
2018-04-18T17:23:33.420Z,30.10
2018-04-18T17:26:01.039Z,29.85
2018-04-18T17:28:28.662Z,29.66
2018-04-18T17:30:56.252Z,29.84
2018-04-18T17:33:23.968Z,29.84
2018-04-18T17:35:51.542Z,29.71
2018-04-18T17:38:19.133Z,29.45
2018-04-18T17:40:46.758Z,29.40
2018-04-18T17:43:14.368Z,29.19
2018-04-18T17:45:42.029Z,29.20
2018-04-18T17:48:09.639Z,29.12
2018-04-18T17:50:37.272Z,29.12
2018-04-18T17:53:04.962Z,29.00
2018-04-18T17:55:32.617Z,28.66
2018-04-18T17:58:00.236Z,28.47
2018-04-18T18:00:27.915Z,28.42
2018-04-18T18:02:55.508Z,28.29
2018-04-18T18:05:23.226Z,27.97
2018-04-18T18:07:50.832Z,27.77
2018-04-18T18:10:18.466Z,27.68
2018-04-18T18:12:46.084Z,27.49
2018-04-18T18:15:13.713Z,27.33
2018-04-18T18:17:41.349Z,27.29
2018-04-18T18:20:09.005Z,27.19
2018-04-18T18:22:36.673Z,27.05
2018-04-18T18:25:04.315Z,26.97
2018-04-18T18:27:31.937Z,26.77
2018-04-18T18:29:59.765Z,26.72
2018-04-18T18:32:27.368Z,26.70
2018-04-18T18:34:55.081Z,26.65
2018-04-18T18:37:22.715Z,26.67
2018-04-18T18:39:50.358Z,26.68
2018-04-18T18:42:19.061Z,26.59
2018-04-18T18:44:48.376Z,26.50
2018-04-18T18:47:15.983Z,26.53
2018-04-18T18:49:43.599Z,26.29
2018-04-18T18:52:11.258Z,26.16
2018-04-18T18:54:43.595Z,26.04
2018-04-18T18:57:11.272Z,26.13
2018-04-18T18:59:38.881Z,26.19
2018-04-18T19:02:06.497Z,26.24
2018-04-18T19:04:34.100Z,26.30
2018-04-18T19:07:01.737Z,26.32
2018-04-18T19:09:29.340Z,26.33
2018-04-18T19:11:56.985Z,26.29
2018-04-18T19:14:24.596Z,26.21
2018-04-18T19:16:52.233Z,26.17
2018-04-18T19:19:19.849Z,26.07
2018-04-18T19:21:47.490Z,25.91
2018-04-18T19:24:15.122Z,25.87
2018-04-18T19:26:42.767Z,25.78
2018-04-18T19:29:10.395Z,25.68
2018-04-18T19:31:38.035Z,25.62
2018-04-18T19:34:05.689Z,25.50
2018-04-18T19:36:33.432Z,25.43
2018-04-18T19:39:01.047Z,25.32
2018-04-18T19:41:28.675Z,25.21
2018-04-18T19:43:56.303Z,25.17
2018-04-18T19:46:24.080Z,25.08
2018-04-18T19:48:51.713Z,25.07
2018-04-18T19:51:19.344Z,24.96
2018-04-18T19:53:47.057Z,24.88
2018-04-18T19:56:14.673Z,24.82
2018-04-18T19:58:42.369Z,24.77
2018-04-18T20:01:09.971Z,24.73
2018-04-18T20:03:37.613Z,24.72
2018-04-18T20:06:05.258Z,24.59
2018-04-18T20:08:32.906Z,24.53
2018-04-18T20:11:00.520Z,24.43
2018-04-18T20:13:28.155Z,24.38
2018-04-18T20:15:55.761Z,24.24
2018-04-18T20:18:23.413Z,24.16
2018-04-18T20:20:51.026Z,24.15
2018-04-18T20:23:18.647Z,24.12
2018-04-18T20:25:46.334Z,23.95
2018-04-18T20:28:13.977Z,23.85
2018-04-18T20:30:41.670Z,23.85
2018-04-18T20:33:09.301Z,23.81
2018-04-18T20:35:36.944Z,23.80
2018-04-18T20:38:04.763Z,23.72
2018-04-18T20:40:32.482Z,23.66
2018-04-18T20:43:00.098Z,23.58
2018-04-18T20:45:27.740Z,23.57
2018-04-18T20:47:55.341Z,23.54
2018-04-18T20:50:22.986Z,23.55
2018-04-18T20:52:50.621Z,23.41
2018-04-18T20:55:18.344Z,23.22
2018-04-18T20:57:45.950Z,23.12
2018-04-18T21:00:13.575Z,23.01
2018-04-18T21:02:41.194Z,22.99
2018-04-18T21:05:08.861Z,22.89
2018-04-18T21:07:36.429Z,22.83
2018-04-18T21:10:04.026Z,22.81
2018-04-18T21:12:31.658Z,22.87
2018-04-18T21:14:59.258Z,22.95
2018-04-18T21:17:26.905Z,22.94
2018-04-18T21:19:54.494Z,22.69
2018-04-18T21:22:22.145Z,22.66
2018-04-18T21:24:49.736Z,22.57
2018-04-18T21:27:17.373Z,22.59
2018-04-18T21:29:44.969Z,22.49
2018-04-18T21:32:12.625Z,22.41
2018-04-18T21:34:40.243Z,22.34
2018-04-18T21:37:07.959Z,22.27
2018-04-18T21:39:35.552Z,22.12
2018-04-18T21:42:03.208Z,22.04
2018-04-18T21:44:30.803Z,21.96
2018-04-18T21:46:58.392Z,21.76
2018-04-18T21:49:26.077Z,21.63
2018-04-18T21:51:53.710Z,21.62
2018-04-18T21:54:21.348Z,21.59
2018-04-18T21:56:48.941Z,21.57
2018-04-18T21:59:16.574Z,21.52
2018-04-18T22:01:44.197Z,21.49
2018-04-18T22:04:11.868Z,21.44
2018-04-18T22:06:39.470Z,21.37
2018-04-18T22:09:07.153Z,21.44
2018-04-18T22:11:34.754Z,21.47
2018-04-18T22:14:02.420Z,21.46
2018-04-18T22:16:30.002Z,21.35
2018-04-18T22:18:57.633Z,21.36
2018-04-18T22:21:25.223Z,21.38
2018-04-18T22:23:52.874Z,21.43
2018-04-18T22:26:20.453Z,21.46
2018-04-18T22:28:48.087Z,21.49
2018-04-18T22:31:15.757Z,21.44
2018-04-18T22:33:43.396Z,21.41
2018-04-18T22:36:10.994Z,21.33
2018-04-18T22:38:38.632Z,21.24
2018-04-18T22:41:06.229Z,21.13
2018-04-18T22:43:33.869Z,21.01
2018-04-18T22:46:01.509Z,21.02
2018-04-18T22:48:29.106Z,20.98
2018-04-18T22:50:56.749Z,20.78
2018-04-18T22:53:24.339Z,20.75
2018-04-18T22:55:51.992Z,20.79
2018-04-18T22:58:19.644Z,20.83
2018-04-18T23:00:47.266Z,20.76
2018-04-18T23:03:14.865Z,20.79
2018-04-18T23:05:42.510Z,20.62
2018-04-18T23:08:10.095Z,20.22
2018-04-18T23:10:37.737Z,19.89
2018-04-18T23:13:05.345Z,19.88
2018-04-18T23:15:32.964Z,20.04
2018-04-18T23:18:00.621Z,20.20
2018-04-18T23:20:28.248Z,20.32
2018-04-18T23:22:55.859Z,20.45
2018-04-18T23:25:23.569Z,20.52
2018-04-18T23:27:51.156Z,20.53
2018-04-18T23:30:18.813Z,20.49
2018-04-18T23:32:46.405Z,20.47
2018-04-18T23:35:14.001Z,20.45
2018-04-18T23:37:41.645Z,20.39
2018-04-18T23:40:09.303Z,20.40
2018-04-18T23:42:37.060Z,20.29
2018-04-18T23:45:04.603Z,20.24
2018-04-18T23:47:32.227Z,20.19
2018-04-18T23:49:59.837Z,20.14
2018-04-18T23:52:27.474Z,20.15
2018-04-18T23:54:55.072Z,20.13
2018-04-18T23:57:22.744Z,20.00
2018-04-18T23:59:50.349Z,19.98
